sensor_id;sensor_type;location;lat;lon;timestamp;noise_LAeq;noise_LA_min;noise_LA_max;noise_LA01;noise_LA95
63692;Laerm;49838;51.798;10.954;2022-08-26T00:02:12;32.95;28.81;40.45;;
63692;Laerm;49838;51.798;10.954;2022-08-26T00:04:42;35.37;28.59;44.53;;
63692;Laerm;49838;51.798;10.954;2022-08-26T00:07:09;35.70;29.55;44.93;;
63692;Laerm;49838;51.798;10.954;2022-08-26T00:09:37;33.37;28.74;45.68;;
63692;Laerm;49838;51.798;10.954;2022-08-26T00:12:04;35.24;28.85;50.61;;
63692;Laerm;49838;51.798;10.954;2022-08-26T00:14:31;35.00;28.71;45.78;;
63692;Laerm;49838;51.798;10.954;2022-08-26T00:17:00;34.73;28.23;45.68;;
63692;Laerm;49838;51.798;10.954;2022-08-26T00:19:27;36.25;28.97;51.65;;
63692;Laerm;49838;51.798;10.954;2022-08-26T00:21:55;34.81;28.69;43.33;;
63692;Laerm;49838;51.798;10.954;2022-08-26T00:24:22;34.50;28.97;43.24;;
63692;Laerm;49838;51.798;10.954;2022-08-26T00:26:49;37.29;28.82;48.94;;
63692;Laerm;49838;51.798;10.954;2022-08-26T00:29:17;31.89;27.86;37.46;;
63692;Laerm;49838;51.798;10.954;2022-08-26T00:31:44;37.95;29.26;50.93;;
63692;Laerm;49838;51.798;10.954;2022-08-26T00:34:13;39.20;30.23;47.59;;
63692;Laerm;49838;51.798;10.954;2022-08-26T00:36:42;35.17;28.13;43.73;;
63692;Laerm;49838;51.798;10.954;2022-08-26T00:39:09;35.34;28.33;51.30;;
63692;Laerm;49838;51.798;10.954;2022-08-26T00:41:38;31.63;28.70;52.54;;
63692;Laerm;49838;51.798;10.954;2022-08-26T00:44:06;43.65;30.54;56.70;;
63692;Laerm;49838;51.798;10.954;2022-08-26T00:46:38;32.27;28.59;41.23;;
63692;Laerm;49838;51.798;10.954;2022-08-26T00:49:10;39.53;28.64;50.59;;
63692;Laerm;49838;51.798;10.954;2022-08-26T00:51:43;39.09;31.03;48.42;;
63692;Laerm;49838;51.798;10.954;2022-08-26T00:54:12;37.77;28.75;49.46;;
63692;Laerm;49838;51.798;10.954;2022-08-26T00:56:42;38.76;29.82;60.24;;
63692;Laerm;49838;51.798;10.954;2022-08-26T00:59:12;37.67;30.64;47.37;;
63692;Laerm;49838;51.798;10.954;2022-08-26T01:01:42;36.16;28.33;52.38;;
63692;Laerm;49838;51.798;10.954;2022-08-26T01:04:11;32.52;28.38;42.54;;
63692;Laerm;49838;51.798;10.954;2022-08-26T01:06:41;36.12;28.87;56.77;;
63692;Laerm;49838;51.798;10.954;2022-08-26T01:09:08;37.06;29.48;46.40;;
63692;Laerm;49838;51.798;10.954;2022-08-26T01:11:35;38.52;29.41;48.50;;
63692;Laerm;49838;51.798;10.954;2022-08-26T01:14:04;36.70;28.33;48.74;;
63692;Laerm;49838;51.798;10.954;2022-08-26T01:16:32;36.62;28.49;50.68;;
63692;Laerm;49838;51.798;10.954;2022-08-26T01:19:06;36.63;28.74;48.83;;
63692;Laerm;49838;51.798;10.954;2022-08-26T01:21:42;38.04;29.09;49.42;;
63692;Laerm;49838;51.798;10.954;2022-08-26T01:24:14;31.73;28.08;40.19;;
63692;Laerm;49838;51.798;10.954;2022-08-26T01:26:42;38.86;30.64;48.85;;
63692;Laerm;49838;51.798;10.954;2022-08-26T01:29:15;34.26;28.79;46.57;;
63692;Laerm;49838;51.798;10.954;2022-08-26T01:31:44;43.04;28.30;62.20;;
63692;Laerm;49838;51.798;10.954;2022-08-26T01:34:17;38.10;28.35;53.91;;
63692;Laerm;49838;51.798;10.954;2022-08-26T01:36:47;33.40;28.80;43.34;;
63692;Laerm;49838;51.798;10.954;2022-08-26T01:39:17;35.39;29.05;42.89;;
63692;Laerm;49838;51.798;10.954;2022-08-26T01:41:45;32.16;28.93;41.12;;
63692;Laerm;49838;51.798;10.954;2022-08-26T01:44:14;37.14;29.45;54.07;;
63692;Laerm;49838;51.798;10.954;2022-08-26T01:46:43;35.07;28.89;43.84;;
63692;Laerm;49838;51.798;10.954;2022-08-26T01:49:13;35.89;30.32;44.20;;
63692;Laerm;49838;51.798;10.954;2022-08-26T01:51:41;33.45;28.79;40.87;;
63692;Laerm;49838;51.798;10.954;2022-08-26T01:54:10;37.64;29.95;46.67;;
63692;Laerm;49838;51.798;10.954;2022-08-26T01:56:39;36.48;30.44;46.16;;
63692;Laerm;49838;51.798;10.954;2022-08-26T01:59:10;36.15;29.07;44.16;;
63692;Laerm;49838;51.798;10.954;2022-08-26T02:01:39;36.52;28.78;50.34;;
63692;Laerm;49838;51.798;10.954;2022-08-26T02:04:14;38.51;30.35;50.14;;
63692;Laerm;49838;51.798;10.954;2022-08-26T02:06:42;40.65;29.07;56.45;;
63692;Laerm;49838;51.798;10.954;2022-08-26T02:09:10;39.92;30.22;56.01;;
63692;Laerm;49838;51.798;10.954;2022-08-26T02:11:39;45.36;32.96;54.51;;
63692;Laerm;49838;51.798;10.954;2022-08-26T02:14:09;40.39;31.75;49.02;;
63692;Laerm;49838;51.798;10.954;2022-08-26T02:16:39;41.77;32.81;52.35;;
63692;Laerm;49838;51.798;10.954;2022-08-26T02:19:10;38.69;32.33;48.35;;
63692;Laerm;49838;51.798;10.954;2022-08-26T02:21:39;40.72;31.28;51.63;;
63692;Laerm;49838;51.798;10.954;2022-08-26T02:24:08;46.04;32.39;62.80;;
63692;Laerm;49838;51.798;10.954;2022-08-26T02:26:36;42.73;35.79;51.16;;
63692;Laerm;49838;51.798;10.954;2022-08-26T02:29:09;39.07;33.34;49.75;;
63692;Laerm;49838;51.798;10.954;2022-08-26T02:31:39;37.02;32.74;43.61;;
63692;Laerm;49838;51.798;10.954;2022-08-26T02:34:08;39.87;33.05;46.56;;
63692;Laerm;49838;51.798;10.954;2022-08-26T02:36:36;39.33;33.19;48.79;;
63692;Laerm;49838;51.798;10.954;2022-08-26T02:39:04;43.77;34.01;55.95;;
63692;Laerm;49838;51.798;10.954;2022-08-26T02:41:32;42.22;33.46;55.13;;
63692;Laerm;49838;51.798;10.954;2022-08-26T02:43:59;40.87;33.71;48.27;;
63692;Laerm;49838;51.798;10.954;2022-08-26T02:46:28;43.62;37.45;51.83;;
63692;Laerm;49838;51.798;10.954;2022-08-26T02:48:56;49.89;34.89;67.90;;
63692;Laerm;49838;51.798;10.954;2022-08-26T02:51:23;44.41;37.54;52.03;;
63692;Laerm;49838;51.798;10.954;2022-08-26T02:53:51;45.30;37.91;55.11;;
63692;Laerm;49838;51.798;10.954;2022-08-26T02:56:19;44.65;34.68;61.27;;
63692;Laerm;49838;51.798;10.954;2022-08-26T02:58:46;43.27;36.03;55.94;;
63692;Laerm;49838;51.798;10.954;2022-08-26T03:01:20;43.90;35.30;57.59;;
63692;Laerm;49838;51.798;10.954;2022-08-26T03:03:49;41.43;32.50;50.90;;
63692;Laerm;49838;51.798;10.954;2022-08-26T03:06:17;44.42;35.20;53.08;;
63692;Laerm;49838;51.798;10.954;2022-08-26T03:08:44;44.08;34.72;52.45;;
63692;Laerm;49838;51.798;10.954;2022-08-26T03:11:12;52.87;34.68;70.47;;
63692;Laerm;49838;51.798;10.954;2022-08-26T03:13:40;42.44;35.53;57.65;;
63692;Laerm;49838;51.798;10.954;2022-08-26T03:16:08;55.66;35.54;74.43;;
63692;Laerm;49838;51.798;10.954;2022-08-26T03:18:35;55.94;35.95;74.25;;
63692;Laerm;49838;51.798;10.954;2022-08-26T03:21:08;43.79;37.64;52.15;;
63692;Laerm;49838;51.798;10.954;2022-08-26T03:23:37;41.89;35.08;48.19;;
63692;Laerm;49838;51.798;10.954;2022-08-26T03:26:05;49.95;35.92;66.42;;
63692;Laerm;49838;51.798;10.954;2022-08-26T03:28:33;52.00;36.52;67.82;;
63692;Laerm;49838;51.798;10.954;2022-08-26T03:31:00;43.16;37.04;58.37;;
63692;Laerm;49838;51.798;10.954;2022-08-26T03:33:26;44.64;36.88;72.03;;
63692;Laerm;49838;51.798;10.954;2022-08-26T03:35:54;48.97;35.42;66.45;;
63692;Laerm;49838;51.798;10.954;2022-08-26T03:38:23;41.89;35.37;49.08;;
63692;Laerm;49838;51.798;10.954;2022-08-26T03:40:51;49.15;36.76;64.61;;
63692;Laerm;49838;51.798;10.954;2022-08-26T03:43:18;55.82;37.95;83.90;;
63692;Laerm;49838;51.798;10.954;2022-08-26T03:45:46;49.23;38.15;66.20;;
63692;Laerm;49838;51.798;10.954;2022-08-26T03:48:13;51.43;38.78;65.21;;
63692;Laerm;49838;51.798;10.954;2022-08-26T03:50:41;49.93;37.81;66.11;;
63692;Laerm;49838;51.798;10.954;2022-08-26T03:53:08;42.48;37.66;52.81;;
63692;Laerm;49838;51.798;10.954;2022-08-26T03:55:37;55.25;39.17;72.07;;
63692;Laerm;49838;51.798;10.954;2022-08-26T03:58:04;56.15;39.83;74.77;;
63692;Laerm;49838;51.798;10.954;2022-08-26T04:00:32;56.51;38.82;74.62;;
63692;Laerm;49838;51.798;10.954;2022-08-26T04:02:59;52.55;38.36;70.30;;
63692;Laerm;49838;51.798;10.954;2022-08-26T04:05:26;44.27;38.68;57.78;;
63692;Laerm;49838;51.798;10.954;2022-08-26T04:07:54;43.96;36.90;52.89;;
63692;Laerm;49838;51.798;10.954;2022-08-26T04:10:21;53.27;39.47;71.55;;
63692;Laerm;49838;51.798;10.954;2022-08-26T04:12:51;54.24;37.03;72.13;;
63692;Laerm;49838;51.798;10.954;2022-08-26T04:15:19;43.99;38.08;58.77;;
63692;Laerm;49838;51.798;10.954;2022-08-26T04:17:47;42.38;35.50;62.20;;
63692;Laerm;49838;51.798;10.954;2022-08-26T04:20:14;56.73;38.66;72.36;;
63692;Laerm;49838;51.798;10.954;2022-08-26T04:22:43;60.94;39.84;76.41;;
63692;Laerm;49838;51.798;10.954;2022-08-26T04:25:11;53.87;40.31;72.57;;
63692;Laerm;49838;51.798;10.954;2022-08-26T04:27:39;56.86;39.10;74.91;;
63692;Laerm;49838;51.798;10.954;2022-08-26T04:30:09;57.20;39.41;78.00;;
63692;Laerm;49838;51.798;10.954;2022-08-26T04:32:36;52.03;39.47;66.12;;
63692;Laerm;49838;51.798;10.954;2022-08-26T04:35:04;57.07;40.44;73.51;;
63692;Laerm;49838;51.798;10.954;2022-08-26T04:37:32;56.01;39.48;70.69;;
63692;Laerm;49838;51.798;10.954;2022-08-26T04:39:59;53.46;39.81;67.31;;
63692;Laerm;49838;51.798;10.954;2022-08-26T04:42:26;56.02;40.48;75.44;;
63692;Laerm;49838;51.798;10.954;2022-08-26T04:44:54;60.67;40.27;74.64;;
63692;Laerm;49838;51.798;10.954;2022-08-26T04:47:23;56.57;41.08;69.75;;
63692;Laerm;49838;51.798;10.954;2022-08-26T04:49:53;55.62;42.52;71.12;;
63692;Laerm;49838;51.798;10.954;2022-08-26T04:52:21;57.95;43.78;75.15;;
63692;Laerm;49838;51.798;10.954;2022-08-26T04:54:48;59.51;44.28;75.52;;
63692;Laerm;49838;51.798;10.954;2022-08-26T04:57:16;61.21;44.67;80.40;;
63692;Laerm;49838;51.798;10.954;2022-08-26T04:59:43;59.77;45.67;73.99;;
63692;Laerm;49838;51.798;10.954;2022-08-26T05:02:10;58.49;43.88;73.66;;
63692;Laerm;49838;51.798;10.954;2022-08-26T05:04:39;56.74;42.49;70.92;;
63692;Laerm;49838;51.798;10.954;2022-08-26T05:07:08;54.51;42.08;72.19;;
63692;Laerm;49838;51.798;10.954;2022-08-26T05:09:35;55.68;43.62;69.54;;
63692;Laerm;49838;51.798;10.954;2022-08-26T05:12:03;53.78;43.56;66.88;;
63692;Laerm;49838;51.798;10.954;2022-08-26T05:14:30;59.36;43.23;71.15;;
63692;Laerm;49838;51.798;10.954;2022-08-26T05:16:58;56.14;41.66;69.90;;
63692;Laerm;49838;51.798;10.954;2022-08-26T05:19:25;59.19;42.43;71.26;;
63692;Laerm;49838;51.798;10.954;2022-08-26T05:21:54;62.30;43.74;80.25;;
63692;Laerm;49838;51.798;10.954;2022-08-26T05:24:21;58.33;41.19;71.56;;
63692;Laerm;49838;51.798;10.954;2022-08-26T05:26:48;57.40;41.87;70.56;;
63692;Laerm;49838;51.798;10.954;2022-08-26T05:29:16;57.07;41.48;71.59;;
63692;Laerm;49838;51.798;10.954;2022-08-26T05:31:43;56.57;42.51;70.00;;
63692;Laerm;49838;51.798;10.954;2022-08-26T05:34:10;58.60;44.29;72.31;;
63692;Laerm;49838;51.798;10.954;2022-08-26T05:36:38;63.50;43.13;78.92;;
63692;Laerm;49838;51.798;10.954;2022-08-26T05:39:07;57.83;44.76;74.90;;
63692;Laerm;49838;51.798;10.954;2022-08-26T05:41:38;59.67;41.60;76.15;;
63692;Laerm;49838;51.798;10.954;2022-08-26T05:44:08;53.94;40.63;66.60;;
63692;Laerm;49838;51.798;10.954;2022-08-26T05:46:36;55.10;41.14;70.75;;
63692;Laerm;49838;51.798;10.954;2022-08-26T05:49:05;57.39;40.94;74.29;;
63692;Laerm;49838;51.798;10.954;2022-08-26T05:51:32;57.44;40.13;72.21;;
63692;Laerm;49838;51.798;10.954;2022-08-26T05:54:01;53.24;39.75;71.38;;
63692;Laerm;49838;51.798;10.954;2022-08-26T05:56:29;57.99;40.34;75.99;;
63692;Laerm;49838;51.798;10.954;2022-08-26T05:58:58;48.64;38.63;63.80;;
63692;Laerm;49838;51.798;10.954;2022-08-26T06:01:28;60.89;42.76;77.71;;
63692;Laerm;49838;51.798;10.954;2022-08-26T06:03:57;52.05;36.45;70.05;;
63692;Laerm;49838;51.798;10.954;2022-08-26T06:06:27;59.55;39.03;75.28;;
63692;Laerm;49838;51.798;10.954;2022-08-26T06:08:56;56.92;38.21;72.48;;
63692;Laerm;49838;51.798;10.954;2022-08-26T06:11:26;54.35;37.41;69.09;;
63692;Laerm;49838;51.798;10.954;2022-08-26T06:13:57;59.46;37.26;74.55;;
63692;Laerm;49838;51.798;10.954;2022-08-26T06:16:25;50.10;36.94;65.91;;
63692;Laerm;49838;51.798;10.954;2022-08-26T06:18:53;56.08;37.65;69.17;;
63692;Laerm;49838;51.798;10.954;2022-08-26T06:21:22;55.24;36.58;72.48;;
63692;Laerm;49838;51.798;10.954;2022-08-26T06:23:52;66.46;36.76;88.82;;
63692;Laerm;49838;51.798;10.954;2022-08-26T06:26:39;49.85;36.00;70.11;;
63692;Laerm;49838;51.798;10.954;2022-08-26T06:29:08;62.41;36.92;83.63;;
63692;Laerm;49838;51.798;10.954;2022-08-26T06:31:35;54.71;35.66;73.61;;
63692;Laerm;49838;51.798;10.954;2022-08-26T06:34:04;65.48;40.57;84.54;;
63692;Laerm;49838;51.798;10.954;2022-08-26T06:36:32;58.46;37.55;69.98;;
63692;Laerm;49838;51.798;10.954;2022-08-26T06:39:03;58.74;37.15;70.98;;
63692;Laerm;49838;51.798;10.954;2022-08-26T06:41:31;59.47;36.26;70.92;;
63692;Laerm;49838;51.798;10.954;2022-08-26T06:43:58;58.88;37.15;74.34;;
63692;Laerm;49838;51.798;10.954;2022-08-26T06:46:28;41.10;34.73;60.58;;
63692;Laerm;49838;51.798;10.954;2022-08-26T06:48:56;54.37;35.89;70.13;;
63692;Laerm;49838;51.798;10.954;2022-08-26T06:51:25;55.75;35.14;68.64;;
63692;Laerm;49838;51.798;10.954;2022-08-26T06:53:55;60.44;37.19;73.12;;
63692;Laerm;49838;51.798;10.954;2022-08-26T06:56:26;60.93;36.62;77.75;;
63692;Laerm;49838;51.798;10.954;2022-08-26T06:58:53;56.45;36.62;76.83;;
63692;Laerm;49838;51.798;10.954;2022-08-26T07:01:23;57.29;34.71;70.18;;
63692;Laerm;49838;51.798;10.954;2022-08-26T07:03:55;54.72;36.56;67.30;;
63692;Laerm;49838;51.798;10.954;2022-08-26T07:06:23;54.65;35.73;71.65;;
63692;Laerm;49838;51.798;10.954;2022-08-26T07:08:52;52.42;35.24;69.50;;
63692;Laerm;49838;51.798;10.954;2022-08-26T07:11:20;58.76;35.43;73.37;;
63692;Laerm;49838;51.798;10.954;2022-08-26T07:13:49;55.90;39.32;71.77;;
63692;Laerm;49838;51.798;10.954;2022-08-26T07:16:16;53.01;40.71;65.58;;
63692;Laerm;49838;51.798;10.954;2022-08-26T07:18:44;53.84;39.34;72.14;;
63692;Laerm;49838;51.798;10.954;2022-08-26T07:21:15;59.35;38.80;76.74;;
63692;Laerm;49838;51.798;10.954;2022-08-26T07:23:42;55.23;35.88;72.19;;
63692;Laerm;49838;51.798;10.954;2022-08-26T07:26:13;57.25;35.45;71.86;;
63692;Laerm;49838;51.798;10.954;2022-08-26T07:28:41;56.28;34.32;72.70;;
63692;Laerm;49838;51.798;10.954;2022-08-26T07:31:09;55.14;35.94;68.50;;
63692;Laerm;49838;51.798;10.954;2022-08-26T07:33:38;59.94;35.16;78.80;;
63692;Laerm;49838;51.798;10.954;2022-08-26T07:36:07;57.60;36.00;72.81;;
63692;Laerm;49838;51.798;10.954;2022-08-26T07:38:38;59.30;39.38;75.13;;
63692;Laerm;49838;51.798;10.954;2022-08-26T07:41:06;62.57;35.96;83.29;;
63692;Laerm;49838;51.798;10.954;2022-08-26T07:43:34;58.35;35.86;70.56;;
63692;Laerm;49838;51.798;10.954;2022-08-26T07:46:02;58.57;40.32;77.43;;
63692;Laerm;49838;51.798;10.954;2022-08-26T07:48:29;51.35;41.15;63.30;;
63692;Laerm;49838;51.798;10.954;2022-08-26T07:50:57;60.20;43.06;72.74;;
63692;Laerm;49838;51.798;10.954;2022-08-26T07:53:24;58.78;34.85;73.68;;
63692;Laerm;49838;51.798;10.954;2022-08-26T07:55:53;58.74;35.67;75.53;;
63692;Laerm;49838;51.798;10.954;2022-08-26T07:58:20;58.56;35.77;72.52;;
63692;Laerm;49838;51.798;10.954;2022-08-26T08:00:47;52.16;36.36;66.82;;
63692;Laerm;49838;51.798;10.954;2022-08-26T08:03:15;66.05;37.01;90.15;;
63692;Laerm;49838;51.798;10.954;2022-08-26T08:05:42;59.84;39.50;70.24;;
63692;Laerm;49838;51.798;10.954;2022-08-26T08:08:09;57.06;39.45;78.19;;
63692;Laerm;49838;51.798;10.954;2022-08-26T08:10:37;57.64;36.82;71.70;;
63692;Laerm;49838;51.798;10.954;2022-08-26T08:13:06;58.41;35.65;70.29;;
63692;Laerm;49838;51.798;10.954;2022-08-26T08:15:34;58.11;34.73;76.93;;
63692;Laerm;49838;51.798;10.954;2022-08-26T08:18:03;57.23;35.37;70.56;;
63692;Laerm;49838;51.798;10.954;2022-08-26T08:20:31;55.16;35.17;69.36;;
63692;Laerm;49838;51.798;10.954;2022-08-26T08:23:00;56.29;37.84;71.18;;
63692;Laerm;49838;51.798;10.954;2022-08-26T08:25:29;60.73;40.64;76.88;;
63692;Laerm;49838;51.798;10.954;2022-08-26T08:27:56;57.73;36.67;72.55;;
63692;Laerm;49838;51.798;10.954;2022-08-26T08:30:26;60.78;37.78;77.16;;
63692;Laerm;49838;51.798;10.954;2022-08-26T08:32:54;57.56;37.73;72.40;;
63692;Laerm;49838;51.798;10.954;2022-08-26T08:35:22;60.83;43.78;74.56;;
63692;Laerm;49838;51.798;10.954;2022-08-26T08:37:51;56.49;35.65;70.47;;
63692;Laerm;49838;51.798;10.954;2022-08-26T08:40:22;57.87;35.29;70.95;;
63692;Laerm;49838;51.798;10.954;2022-08-26T08:42:55;63.73;36.07;80.47;;
63692;Laerm;49838;51.798;10.954;2022-08-26T08:45:30;56.59;36.05;73.40;;
63692;Laerm;49838;51.798;10.954;2022-08-26T08:48:00;62.19;40.37;80.52;;
63692;Laerm;49838;51.798;10.954;2022-08-26T08:50:31;53.19;34.98;67.91;;
63692;Laerm;49838;51.798;10.954;2022-08-26T08:53:07;57.33;36.06;77.13;;
63692;Laerm;49838;51.798;10.954;2022-08-26T08:55:46;58.38;39.19;71.95;;
63692;Laerm;49838;51.798;10.954;2022-08-26T08:58:16;58.59;34.13;73.45;;
63692;Laerm;49838;51.798;10.954;2022-08-26T09:00:49;57.36;37.18;73.00;;
63692;Laerm;49838;51.798;10.954;2022-08-26T09:03:30;59.16;38.62;75.52;;
63692;Laerm;49838;51.798;10.954;2022-08-26T09:06:00;55.45;37.11;72.08;;
63692;Laerm;49838;51.798;10.954;2022-08-26T09:08:31;52.48;36.74;66.19;;
63692;Laerm;49838;51.798;10.954;2022-08-26T09:11:01;55.71;36.51;70.85;;
63692;Laerm;49838;51.798;10.954;2022-08-26T09:13:29;53.16;38.83;68.27;;
63692;Laerm;49838;51.798;10.954;2022-08-26T09:16:04;57.67;37.26;73.49;;
63692;Laerm;49838;51.798;10.954;2022-08-26T09:18:57;59.35;42.98;72.16;;
63692;Laerm;49838;51.798;10.954;2022-08-26T09:21:26;64.34;41.94;80.22;;
63692;Laerm;49838;51.798;10.954;2022-08-26T09:23:54;57.17;41.06;72.40;;
63692;Laerm;49838;51.798;10.954;2022-08-26T09:26:24;58.43;39.97;70.34;;
63692;Laerm;49838;51.798;10.954;2022-08-26T09:28:54;58.88;38.98;74.51;;
63692;Laerm;49838;51.798;10.954;2022-08-26T09:31:26;60.96;38.47;75.99;;
63692;Laerm;49838;51.798;10.954;2022-08-26T09:34:12;61.70;38.37;77.66;;
63692;Laerm;49838;51.798;10.954;2022-08-26T09:36:42;60.44;39.48;73.50;;
63692;Laerm;49838;51.798;10.954;2022-08-26T09:39:24;57.55;40.36;72.03;;
63692;Laerm;49838;51.798;10.954;2022-08-26T09:42:05;57.36;39.81;82.19;;
63692;Laerm;49838;51.798;10.954;2022-08-26T09:44:51;59.19;41.41;82.00;;
63692;Laerm;49838;51.798;10.954;2022-08-26T09:47:22;57.61;41.34;74.89;;
63692;Laerm;49838;51.798;10.954;2022-08-26T09:50:00;60.26;39.67;74.59;;
63692;Laerm;49838;51.798;10.954;2022-08-26T09:52:30;60.35;38.09;76.33;;
63692;Laerm;49838;51.798;10.954;2022-08-26T09:55:05;58.77;37.25;76.52;;
63692;Laerm;49838;51.798;10.954;2022-08-26T09:57:44;59.18;38.14;74.84;;
63692;Laerm;49838;51.798;10.954;2022-08-26T10:00:28;53.34;36.28;78.61;;
63692;Laerm;49838;51.798;10.954;2022-08-26T10:02:59;55.99;41.59;72.44;;
63692;Laerm;49838;51.798;10.954;2022-08-26T10:05:30;59.54;41.90;74.86;;
63692;Laerm;49838;51.798;10.954;2022-08-26T10:07:58;58.15;41.75;72.05;;
63692;Laerm;49838;51.798;10.954;2022-08-26T10:10:30;60.15;40.49;73.03;;
63692;Laerm;49838;51.798;10.954;2022-08-26T10:13:03;56.51;39.95;74.82;;
63692;Laerm;49838;51.798;10.954;2022-08-26T10:15:40;56.24;37.05;81.69;;
63692;Laerm;49838;51.798;10.954;2022-08-26T10:18:14;57.70;37.40;72.25;;
63692;Laerm;49838;51.798;10.954;2022-08-26T10:20:50;57.24;40.24;74.18;;
63692;Laerm;49838;51.798;10.954;2022-08-26T10:23:22;59.16;39.08;70.34;;
63692;Laerm;49838;51.798;10.954;2022-08-26T10:25:54;51.27;40.48;67.79;;
63692;Laerm;49838;51.798;10.954;2022-08-26T10:28:29;58.73;38.06;76.51;;
63692;Laerm;49838;51.798;10.954;2022-08-26T10:31:02;58.78;43.00;71.74;;
63692;Laerm;49838;51.798;10.954;2022-08-26T10:33:32;58.05;41.81;68.22;;
63692;Laerm;49838;51.798;10.954;2022-08-26T10:36:03;58.97;38.53;76.89;;
63692;Laerm;49838;51.798;10.954;2022-08-26T10:38:34;49.62;39.36;64.96;;
63692;Laerm;49838;51.798;10.954;2022-08-26T10:41:05;58.29;39.69;73.23;;
63692;Laerm;49838;51.798;10.954;2022-08-26T10:43:36;57.75;39.75;72.15;;
63692;Laerm;49838;51.798;10.954;2022-08-26T10:46:09;55.97;37.91;70.93;;
63692;Laerm;49838;51.798;10.954;2022-08-26T10:48:45;57.00;37.49;70.37;;
63692;Laerm;49838;51.798;10.954;2022-08-26T10:51:15;56.37;37.46;72.13;;
63692;Laerm;49838;51.798;10.954;2022-08-26T10:53:49;61.70;42.72;72.07;;
63692;Laerm;49838;51.798;10.954;2022-08-26T10:56:28;59.89;39.33;72.15;;
63692;Laerm;49838;51.798;10.954;2022-08-26T10:59:05;59.76;39.51;74.08;;
63692;Laerm;49838;51.798;10.954;2022-08-26T11:01:39;63.16;39.99;80.94;;
63692;Laerm;49838;51.798;10.954;2022-08-26T11:04:20;58.05;40.82;73.98;;
63692;Laerm;49838;51.798;10.954;2022-08-26T11:09:57;55.43;39.18;73.68;;
63692;Laerm;49838;51.798;10.954;2022-08-26T11:12:49;56.60;38.81;75.10;;
63692;Laerm;49838;51.798;10.954;2022-08-26T11:18:51;55.58;39.48;68.27;;
63692;Laerm;49838;51.798;10.954;2022-08-26T11:21:50;50.94;34.10;67.19;;
63692;Laerm;49838;51.798;10.954;2022-08-26T11:24:38;53.92;35.21;68.41;;
63692;Laerm;49838;51.798;10.954;2022-08-26T11:27:08;58.53;38.11;80.89;;
63692;Laerm;49838;51.798;10.954;2022-08-26T11:29:54;58.66;38.79;73.28;;
63692;Laerm;49838;51.798;10.954;2022-08-26T11:32:24;59.33;37.72;72.67;;
63692;Laerm;49838;51.798;10.954;2022-08-26T11:34:54;61.01;37.21;79.30;;
63692;Laerm;49838;51.798;10.954;2022-08-26T11:37:28;53.10;34.74;68.02;;
63692;Laerm;49838;51.798;10.954;2022-08-26T11:39:59;61.13;38.76;77.07;;
63692;Laerm;49838;51.798;10.954;2022-08-26T11:42:34;56.35;37.58;70.15;;
63692;Laerm;49838;51.798;10.954;2022-08-26T11:45:14;54.80;36.87;71.03;;
63692;Laerm;49838;51.798;10.954;2022-08-26T11:47:41;57.25;36.89;73.42;;
63692;Laerm;49838;51.798;10.954;2022-08-26T11:50:13;56.88;36.64;74.68;;
63692;Laerm;49838;51.798;10.954;2022-08-26T11:52:51;65.17;40.48;85.28;;
63692;Laerm;49838;51.798;10.954;2022-08-26T11:55:18;56.28;35.47;77.16;;
63692;Laerm;49838;51.798;10.954;2022-08-26T11:57:48;58.37;36.82;71.25;;
63692;Laerm;49838;51.798;10.954;2022-08-26T12:00:18;59.56;33.76;75.25;;
63692;Laerm;49838;51.798;10.954;2022-08-26T12:02:45;54.15;31.79;72.72;;
63692;Laerm;49838;51.798;10.954;2022-08-26T12:05:24;49.68;33.41;66.55;;
63692;Laerm;49838;51.798;10.954;2022-08-26T12:07:55;59.42;33.79;74.98;;
63692;Laerm;49838;51.798;10.954;2022-08-26T12:10:28;58.68;35.19;77.39;;
63692;Laerm;49838;51.798;10.954;2022-08-26T12:12:58;57.05;34.34;72.61;;
63692;Laerm;49838;51.798;10.954;2022-08-26T12:15:27;58.47;34.47;71.75;;
63692;Laerm;49838;51.798;10.954;2022-08-26T12:17:55;50.79;32.66;67.08;;
63692;Laerm;49838;51.798;10.954;2022-08-26T12:20:29;57.58;33.37;73.35;;
63692;Laerm;49838;51.798;10.954;2022-08-26T12:23:25;53.85;34.23;69.08;;
63692;Laerm;49838;51.798;10.954;2022-08-26T12:26:02;55.64;37.07;69.54;;
63692;Laerm;49838;51.798;10.954;2022-08-26T12:28:30;55.81;35.20;69.01;;
63692;Laerm;49838;51.798;10.954;2022-08-26T12:31:00;59.55;38.99;72.04;;
63692;Laerm;49838;51.798;10.954;2022-08-26T12:33:29;57.90;37.58;74.17;;
63692;Laerm;49838;51.798;10.954;2022-08-26T12:35:56;53.92;32.92;76.44;;
63692;Laerm;49838;51.798;10.954;2022-08-26T12:38:27;59.36;34.70;74.83;;
63692;Laerm;49838;51.798;10.954;2022-08-26T12:40:55;57.00;36.17;70.74;;
63692;Laerm;49838;51.798;10.954;2022-08-26T12:43:38;57.55;36.10;71.56;;
63692;Laerm;49838;51.798;10.954;2022-08-26T12:46:08;55.85;36.54;69.28;;
63692;Laerm;49838;51.798;10.954;2022-08-26T12:48:37;56.54;35.29;67.74;;
63692;Laerm;49838;51.798;10.954;2022-08-26T12:51:10;57.80;34.98;73.34;;
63692;Laerm;49838;51.798;10.954;2022-08-26T12:53:42;46.36;33.31;65.16;;
63692;Laerm;49838;51.798;10.954;2022-08-26T12:56:25;57.60;35.03;69.90;;
63692;Laerm;49838;51.798;10.954;2022-08-26T12:59:05;56.26;36.98;70.27;;
63692;Laerm;49838;51.798;10.954;2022-08-26T13:01:39;54.04;36.38;69.32;;
63692;Laerm;49838;51.798;10.954;2022-08-26T13:04:36;57.73;36.22;77.72;;
63692;Laerm;49838;51.798;10.954;2022-08-26T13:07:20;56.13;36.66;69.48;;
63692;Laerm;49838;51.798;10.954;2022-08-26T13:09:52;61.07;40.68;77.32;;
63692;Laerm;49838;51.798;10.954;2022-08-26T13:12:25;56.33;34.97;70.20;;
63692;Laerm;49838;51.798;10.954;2022-08-26T13:14:53;59.25;35.53;82.88;;
63692;Laerm;49838;51.798;10.954;2022-08-26T13:17:21;56.83;35.39;78.57;;
63692;Laerm;49838;51.798;10.954;2022-08-26T13:19:48;59.48;34.74;75.59;;
63692;Laerm;49838;51.798;10.954;2022-08-26T13:22:17;61.29;35.53;76.53;;
63692;Laerm;49838;51.798;10.954;2022-08-26T13:24:47;57.26;34.85;72.95;;
63692;Laerm;49838;51.798;10.954;2022-08-26T13:27:16;69.06;37.76;90.53;;
63692;Laerm;49838;51.798;10.954;2022-08-26T13:29:45;58.92;35.19;76.59;;
63692;Laerm;49838;51.798;10.954;2022-08-26T13:32:12;64.36;34.62;84.00;;
63692;Laerm;49838;51.798;10.954;2022-08-26T13:34:41;61.10;35.55;78.02;;
63692;Laerm;49838;51.798;10.954;2022-08-26T13:37:08;59.94;36.75;76.99;;
63692;Laerm;49838;51.798;10.954;2022-08-26T13:39:36;57.30;33.47;69.60;;
63692;Laerm;49838;51.798;10.954;2022-08-26T13:42:04;58.23;38.43;72.96;;
63692;Laerm;49838;51.798;10.954;2022-08-26T13:44:33;56.78;34.61;73.59;;
63692;Laerm;49838;51.798;10.954;2022-08-26T13:47:00;55.95;33.60;71.85;;
63692;Laerm;49838;51.798;10.954;2022-08-26T13:49:28;58.22;34.70;73.88;;
63692;Laerm;49838;51.798;10.954;2022-08-26T13:51:55;56.92;35.01;68.45;;
63692;Laerm;49838;51.798;10.954;2022-08-26T13:54:22;55.72;33.99;70.09;;
63692;Laerm;49838;51.798;10.954;2022-08-26T13:56:49;55.83;35.75;73.27;;